Time;durP1;ratioP1;P1;durP2;ratioP2;P2;SDS_P1;SDS_P2;PMS_P1;PMS_P2;Temp;Humidity;BMP_temperature;BMP_pressure;BME280_temperature;BME280_humidity;BME280_pressure;Samples;Min_cycle;Max_cycle;Signal;HPM_P1;HPM_P2
2023/07/28 00:01:46;;;;;;;15.23;5.80;;;;;17.30;100036.00;;;;10509908;28;20196;-76
2023/07/28 00:06:47;;;;;;;6.05;4.22;;;;;17.30;100045.00;;;;10542083;28;20199;-75
2023/07/28 00:11:49;;;;;;;9.85;4.75;;;;;17.30;100043.00;;;;10503320;28;20224;-76
2023/07/28 00:16:50;;;;;;;12.80;5.30;;;;;17.30;100047.00;;;;10504203;28;20653;-74
2023/07/28 00:21:52;;;;;;;7.25;5.10;;;;;17.40;100042.00;;;;10512691;28;20361;-74
2023/07/28 00:26:53;;;;;;;9.05;4.85;;;;;17.40;100045.00;;;;10475978;28;20242;-75
2023/07/28 00:31:54;;;;;;;8.95;4.85;;;;;17.40;100046.00;;;;10507294;28;20608;-75
2023/07/28 00:36:55;;;;;;;7.47;4.82;;;;;17.40;100043.00;;;;10531572;28;20228;-76
2023/07/28 00:41:57;;;;;;;6.97;5.45;;;;;17.40;100049.00;;;;10504835;28;20295;-75
2023/07/28 00:46:58;;;;;;;7.45;5.43;;;;;17.40;100040.00;;;;10525214;28;20803;-75
2023/07/28 00:51:59;;;;;;;13.02;5.53;;;;;17.40;100042.00;;;;10522432;28;20792;-76
2023/07/28 00:57:02;;;;;;;10.07;5.18;;;;;17.40;100043.00;;;;10523795;28;20308;-76
2023/07/28 01:02:03;;;;;;;11.20;5.38;;;;;17.40;100038.00;;;;10512671;28;20610;-78
2023/07/28 01:07:21;;;;;;;12.68;6.38;;;;;17.40;100041.00;;;;10474835;28;20872;-74
2023/07/28 01:12:24;;;;;;;10.38;5.97;;;;;17.40;100051.00;;;;10523588;28;20278;-78
2023/07/28 01:17:25;;;;;;;10.27;6.80;;;;;17.30;100059.00;;;;10515475;28;20193;-77
2023/07/28 01:22:53;;;;;;;9.88;7.10;;;;;17.40;100056.00;;;;10515633;28;20209;-77
2023/07/28 01:27:56;;;;;;;13.80;6.82;;;;;17.40;100051.00;;;;10505778;28;20573;-77
2023/07/28 01:32:57;;;;;;;9.45;6.28;;;;;17.40;100049.00;;;;10504677;28;20228;-77
2023/07/28 01:37:58;;;;;;;12.38;7.10;;;;;17.40;100058.00;;;;10504868;28;20717;-77
2023/07/28 01:43:00;;;;;;;17.27;7.47;;;;;17.40;100057.00;;;;10517863;28;20565;-77
2023/07/28 01:48:01;;;;;;;11.65;7.35;;;;;17.40;100056.00;;;;10520867;28;20219;-77
2023/07/28 01:53:04;;;;;;;14.77;8.43;;;;;17.40;100053.00;;;;10482584;28;20237;-77
2023/07/28 01:58:06;;;;;;;9.02;6.88;;;;;17.40;100055.00;;;;10500526;28;20613;-77
2023/07/28 02:03:07;;;;;;;12.63;7.63;;;;;17.40;100057.00;;;;10523874;27;20224;-77
2023/07/28 02:08:09;;;;;;;12.55;6.90;;;;;17.40;100060.00;;;;10518028;28;20626;-77
2023/07/28 02:13:10;;;;;;;16.92;7.95;;;;;17.40;100064.00;;;;10536144;28;20685;-77
2023/07/28 02:18:11;;;;;;;13.35;7.40;;;;;17.40;100054.00;;;;10500506;28;20217;-77
2023/07/28 02:23:13;;;;;;;17.63;7.18;;;;;17.40;100058.00;;;;10489805;28;20223;-77
2023/07/28 02:28:15;;;;;;;10.10;6.82;;;;;17.40;100063.00;;;;10495395;28;20200;-77
2023/07/28 02:33:17;;;;;;;11.00;7.10;;;;;17.40;100066.00;;;;10500648;28;20208;-77
2023/07/28 02:38:18;;;;;;;16.15;8.88;;;;;17.50;100070.00;;;;10523654;28;20705;-77
2023/07/28 02:43:19;;;;;;;11.10;7.38;;;;;17.50;100070.00;;;;10532335;28;20595;-77
2023/07/28 02:48:21;;;;;;;13.23;7.75;;;;;17.50;100079.00;;;;10500829;28;20296;-76
2023/07/28 02:53:22;;;;;;;14.55;7.00;;;;;17.50;100084.00;;;;10508686;28;20261;-77
2023/07/28 02:58:24;;;;;;;13.32;7.95;;;;;17.50;100085.00;;;;10492586;28;20598;-77
2023/07/28 03:03:25;;;;;;;15.95;9.18;;;;;17.50;100080.00;;;;10516229;28;20189;-77
2023/07/28 03:08:27;;;;;;;14.80;8.68;;;;;17.50;100081.00;;;;10512223;28;20216;-77
2023/07/28 03:13:41;;;;;;;15.20;8.43;;;;;17.50;100094.00;;;;10516225;28;20212;-77
2023/07/28 03:18:42;;;;;;;13.93;8.65;;;;;17.50;100096.00;;;;10534461;28;20224;-77
2023/07/28 03:23:44;;;;;;;16.13;7.88;;;;;17.50;100094.00;;;;10478999;28;20201;-77
2023/07/28 03:28:45;;;;;;;14.20;8.52;;;;;17.50;100091.00;;;;10498231;28;20273;-77
2023/07/28 03:33:47;;;;;;;14.95;7.50;;;;;17.50;100092.00;;;;10531804;28;20792;-78
2023/07/28 03:38:48;;;;;;;15.73;8.07;;;;;17.50;100093.00;;;;10470428;28;20283;-77
2023/07/28 03:43:50;;;;;;;21.80;7.60;;;;;17.50;100092.00;;;;10472248;28;20197;-77
2023/07/28 03:48:51;;;;;;;12.40;6.93;;;;;17.50;100082.00;;;;10511997;28;20243;-78
2023/07/28 03:53:52;;;;;;;13.02;6.82;;;;;17.60;100087.00;;;;10510253;28;20251;-77
2023/07/28 03:58:54;;;;;;;19.40;7.35;;;;;17.50;100087.00;;;;10507389;28;20189;-78
2023/07/28 04:03:55;;;;;;;15.23;7.60;;;;;17.50;100090.00;;;;10518240;28;20205;-77
2023/07/28 04:08:56;;;;;;;10.75;6.53;;;;;17.60;100082.00;;;;10533070;28;20855;-77
2023/07/28 04:13:58;;;;;;;12.95;7.15;;;;;17.60;100089.00;;;;10500924;28;20220;-77
2023/07/28 04:18:59;;;;;;;17.02;6.65;;;;;17.60;100081.00;;;;10532550;28;20598;-76
2023/07/28 04:24:00;;;;;;;9.98;5.97;;;;;17.60;100085.00;;;;10499656;28;20197;-78
2023/07/28 04:29:02;;;;;;;13.45;5.75;;;;;17.60;100086.00;;;;10501404;28;20220;-76
2023/07/28 04:34:04;;;;;;;9.90;6.47;;;;;17.70;100095.00;;;;10474342;28;20231;-77
2023/07/28 04:39:28;;;;;;;9.93;6.50;;;;;17.70;100099.00;;;;10516358;28;20836;-78
2023/07/28 04:44:29;;;;;;;8.77;6.28;;;;;17.80;100106.00;;;;10485874;28;20205;-76
2023/07/28 04:49:37;;;;;;;13.57;6.38;;;;;17.80;100111.00;;;;10508351;28;20194;-84
2023/07/28 04:54:40;;;;;;;11.15;6.10;;;;;17.80;100110.00;;;;10496380;28;20799;-76
2023/07/28 04:59:42;;;;;;;9.55;6.20;;;;;17.90;100117.00;;;;10472605;28;20321;-76
2023/07/28 05:04:44;;;;;;;10.32;5.82;;;;;17.90;100124.00;;;;10482907;28;20224;-79
2023/07/28 05:09:45;;;;;;;9.50;6.03;;;;;18.00;100124.00;;;;10515246;28;20647;-79
2023/07/28 05:14:47;;;;;;;8.35;4.95;;;;;18.00;100117.00;;;;10496521;28;20299;-79
2023/07/28 05:19:52;;;;;;;10.98;5.15;;;;;18.20;100131.00;;;;10490758;28;20197;-78
2023/07/28 05:25:26;;;;;;;5.32;3.58;;;;;18.30;100136.00;;;;10504413;28;20398;-79
2023/07/28 05:30:27;;;;;;;9.02;4.00;;;;;18.40;100139.00;;;;10468664;28;20580;-79
2023/07/28 05:35:32;;;;;;;6.03;3.05;;;;;18.50;100137.00;;;;10469453;28;20221;-81
2023/07/28 05:40:34;;;;;;;9.05;2.70;;;;;18.70;100140.00;;;;10467666;28;20228;-80
2023/07/28 05:45:35;;;;;;;8.32;2.90;;;;;18.80;100137.00;;;;10428733;28;20200;-80
2023/07/28 05:50:38;;;;;;;2.35;2.08;;;;;18.80;100144.00;;;;10397521;28;20218;-77
2023/07/28 05:55:40;;;;;;;4.60;2.25;;;;;18.80;100142.00;;;;10409244;28;20221;-78
2023/07/28 06:00:43;;;;;;;5.22;1.90;;;;;18.70;100144.00;;;;10409262;28;20213;-77
2023/07/28 06:05:52;;;;;;;4.75;2.00;;;;;18.90;100147.00;;;;10391912;28;20212;-77
2023/07/28 06:10:55;;;;;;;3.92;2.13;;;;;19.50;100143.00;;;;10433906;28;20679;-77
2023/07/28 06:15:58;;;;;;;6.47;2.10;;;;;19.90;100134.00;;;;10418451;28;20228;-78
2023/07/28 06:20:59;;;;;;;1.75;1.50;;;;;19.50;100154.00;;;;10404999;28;20292;-77
2023/07/28 06:26:00;;;;;;;6.75;1.30;;;;;19.40;100165.00;;;;10426166;28;20269;-80
2023/07/28 06:31:01;;;;;;;4.28;1.02;;;;;19.30;100180.00;;;;10428471;28;20205;-81
2023/07/28 06:36:04;;;;;;;2.83;0.90;;;;;19.00;100192.00;;;;10401459;28;20427;-81
2023/07/28 06:41:05;;;;;;;2.33;0.70;;;;;18.80;100191.00;;;;10426556;28;20232;-78
2023/07/28 06:46:06;;;;;;;1.75;0.75;;;;;18.80;100190.00;;;;10399728;28;20339;-77
2023/07/28 06:51:08;;;;;;;1.88;0.90;;;;;19.30;100194.00;;;;10406303;28;20201;-80
2023/07/28 06:56:09;;;;;;;4.47;1.55;;;;;19.60;100179.00;;;;10404129;28;20253;-77
2023/07/28 07:01:10;;;;;;;4.15;2.33;;;;;20.00;100169.00;;;;10380227;28;20252;-80
2023/07/28 07:06:12;;;;;;;2.28;1.83;;;;;20.50;100174.00;;;;10416161;28;20212;-77
2023/07/28 07:11:14;;;;;;;2.58;2.30;;;;;21.00;100176.00;;;;10413610;28;20211;-78
2023/07/28 07:16:16;;;;;;;1.67;1.25;;;;;20.90;100180.00;;;;10399769;28;20243;-77
2023/07/28 07:21:27;;;;;;;1.65;1.17;;;;;20.90;100184.00;;;;10400174;28;20303;-76
2023/07/28 07:26:28;;;;;;;1.85;1.70;;;;;21.40;100186.00;;;;10427884;28;21803;-77
2023/07/28 07:31:29;;;;;;;4.07;1.23;;;;;21.50;100187.00;;;;10429776;28;20209;-77
2023/07/28 07:36:31;;;;;;;4.38;1.00;;;;;21.80;100193.00;;;;10415094;28;20228;-76
2023/07/28 07:41:33;;;;;;;2.67;1.23;;;;;22.50;100189.00;;;;10407613;28;20323;-76
2023/07/28 07:46:35;;;;;;;2.33;0.90;;;;;22.70;100190.00;;;;10396287;28;20270;-76
2023/07/28 07:51:37;;;;;;;1.52;1.20;;;;;22.30;100200.00;;;;10410705;28;20243;-77
2023/07/28 07:56:38;;;;;;;1.58;1.15;;;;;22.70;100203.00;;;;10415218;28;20213;-77
2023/07/28 08:01:40;;;;;;;2.33;1.10;;;;;23.00;100204.00;;;;10398118;28;20216;-77
2023/07/28 08:06:44;;;;;;;1.08;1.05;;;;;22.80;100211.00;;;;10431652;28;21468;-78
2023/07/28 08:11:45;;;;;;;1.58;0.90;;;;;22.80;100224.00;;;;10430577;28;20216;-77
2023/07/28 08:16:47;;;;;;;1.63;1.10;;;;;22.10;100227.00;;;;10412079;28;21815;-76
2023/07/28 08:21:48;;;;;;;2.55;1.45;;;;;21.30;100248.00;;;;10397818;28;20216;-76
2023/07/28 08:26:49;;;;;;;1.60;1.50;;;;;21.40;100240.00;;;;10409871;28;21960;-77
2023/07/28 08:31:51;;;;;;;2.10;1.73;;;;;22.10;100231.00;;;;10419550;28;20790;-77
2023/07/28 08:36:52;;;;;;;3.13;1.98;;;;;22.60;100220.00;;;;10406147;28;21547;-75
2023/07/28 08:42:04;;;;;;;3.15;2.00;;;;;22.80;100230.00;;;;10407475;28;20207;-78
2023/07/28 08:47:05;;;;;;;1.90;1.65;;;;;22.90;100229.00;;;;10430300;28;20205;-78
2023/07/28 08:52:07;;;;;;;1.58;1.48;;;;;23.20;100229.00;;;;10416229;28;21864;-78
2023/07/28 08:57:11;;;;;;;3.83;1.50;;;;;22.90;100227.00;;;;10416094;28;20208;-78
2023/07/28 09:02:18;;;;;;;2.08;1.50;;;;;23.50;100229.00;;;;10418761;28;20254;-78
2023/07/28 09:07:19;;;;;;;2.55;1.50;;;;;23.80;100231.00;;;;10431712;28;20213;-76
2023/07/28 09:12:23;;;;;;;3.85;1.00;;;;;22.90;100237.00;;;;10413496;28;20228;-78
2023/07/28 09:17:25;;;;;;;1.08;1.05;;;;;22.30;100244.00;;;;10424106;28;20201;-77
2023/07/28 09:22:29;;;;;;;1.85;1.10;;;;;22.00;100260.00;;;;10412285;28;20205;-77
2023/07/28 09:27:31;;;;;;;1.60;1.08;;;;;22.20;100263.00;;;;10410863;28;20213;-77
2023/07/28 09:32:33;;;;;;;2.33;1.10;;;;;22.90;100248.00;;;;10411714;28;20272;-76
2023/07/28 09:37:39;;;;;;;2.63;1.25;;;;;22.20;100267.00;;;;10411603;28;20216;-77
2023/07/28 09:42:41;;;;;;;3.10;0.90;;;;;22.30;100261.00;;;;10413186;28;20213;-77
2023/07/28 09:47:45;;;;;;;2.10;1.02;;;;;22.80;100268.00;;;;10413502;28;21015;-77
2023/07/28 09:52:49;;;;;;;1.33;0.82;;;;;23.10;100265.00;;;;10434117;28;20574;-77
2023/07/28 09:57:52;;;;;;;1.05;0.80;;;;;23.00;100268.00;;;;10418538;28;21847;-76
2023/07/28 10:02:53;;;;;;;0.60;0.60;;;;;23.80;100275.00;;;;10417981;28;20213;-77
2023/07/28 10:07:56;;;;;;;0.63;0.60;;;;;23.90;100273.00;;;;10422190;28;21530;-77
2023/07/28 10:12:59;;;;;;;2.50;1.13;;;;;24.80;100283.00;;;;10421787;28;20228;-78
2023/07/28 10:18:00;;;;;;;2.85;1.40;;;;;25.20;100272.00;;;;10420728;28;20489;-77
2023/07/28 10:23:07;;;;;;;2.35;1.77;;;;;24.20;100283.00;;;;10403221;28;20228;-77
2023/07/28 10:28:31;;;;;;;4.20;1.95;;;;;23.40;100275.00;;;;10441740;28;20214;-77
2023/07/28 10:33:35;;;;;;;2.40;2.13;;;;;24.50;100283.00;;;;10402160;28;22547;-77
2023/07/28 10:38:39;;;;;;;3.55;2.40;;;;;25.50;100276.00;;;;10439609;28;20228;-77
2023/07/28 10:43:43;;;;;;;2.45;1.75;;;;;24.50;100281.00;;;;10442033;28;20209;-77
2023/07/28 10:48:47;;;;;;;3.10;1.33;;;;;23.70;100271.00;;;;10423487;28;20294;-77
2023/07/28 10:53:55;;;;;;;1.92;1.08;;;;;24.80;100280.00;;;;10386271;28;20312;-80
2023/07/28 10:59:01;;;;;;;1.73;0.90;;;;;25.70;100277.00;;;;10421434;28;20213;-80
2023/07/28 11:04:15;;;;;;;1.52;1.15;;;;;26.20;100267.00;;;;10426236;28;20200;-82
2023/07/28 11:09:18;;;;;;;1.33;1.05;;;;;26.60;100271.00;;;;10440512;28;20213;-79
2023/07/28 11:14:20;;;;;;;3.33;1.92;;;;;25.80;100263.00;;;;10438350;28;20221;-78
2023/07/28 11:19:24;;;;;;;2.20;2.00;;;;;25.80;100272.00;;;;10411059;28;20206;-78
2023/07/28 11:24:26;;;;;;;4.30;3.03;;;;;26.00;100278.00;;;;10437689;28;20221;-80
2023/07/28 11:29:28;;;;;;;4.15;3.40;;;;;25.90;100288.00;;;;10437785;28;20216;-78
2023/07/28 11:34:35;;;;;;;4.22;3.80;;;;;26.20;100290.00;;;;10421483;28;20260;-77
2023/07/28 11:39:37;;;;;;;3.10;2.90;;;;;26.40;100292.00;;;;10422592;28;20883;-77
2023/07/28 11:44:38;;;;;;;3.08;2.78;;;;;26.40;100292.00;;;;10422634;28;20214;-77
2023/07/28 11:49:46;;;;;;;7.88;3.60;;;;;26.40;100292.00;;;;10438061;28;20204;-78
2023/07/28 11:54:48;;;;;;;3.67;3.35;;;;;27.20;100292.00;;;;10420626;28;20224;-76
2023/07/28 11:59:50;;;;;;;3.42;2.67;;;;;27.70;100289.00;;;;10436905;28;20232;-78
2023/07/28 12:04:53;;;;;;;2.45;2.30;;;;;27.60;100298.00;;;;10399020;28;21668;-78
2023/07/28 12:10:06;;;;;;;3.03;2.83;;;;;25.90;100296.00;;;;10418366;28;20296;-77
2023/07/28 12:15:31;;;;;;;2.95;2.33;;;;;27.10;100294.00;;;;10403264;28;21851;-81
2023/07/28 12:20:37;;;;;;;3.10;2.05;;;;;27.40;100289.00;;;;10406945;28;20197;-77
2023/07/28 12:25:41;;;;;;;3.25;1.73;;;;;27.90;100284.00;;;;10426772;28;20405;-78
2023/07/28 12:30:43;;;;;;;1.67;1.25;;;;;28.70;100283.00;;;;10426278;28;20328;-79
2023/07/28 12:35:45;;;;;;;1.42;1.33;;;;;28.70;100280.00;;;;10448706;28;20216;-77
2023/07/28 12:40:49;;;;;;;1.48;1.30;;;;;29.10;100278.00;;;;10433183;28;20207;-79
2023/07/28 12:45:53;;;;;;;3.20;1.60;;;;;29.70;100283.00;;;;10442860;28;20858;-79
2023/07/28 12:50:58;;;;;;;1.67;1.48;;;;;29.10;100279.00;;;;10437766;28;21226;-78
2023/07/28 12:56:02;;;;;;;1.85;1.58;;;;;27.90;100287.00;;;;10447804;28;20650;-79
2023/07/28 13:01:04;;;;;;;5.20;1.38;;;;;28.20;100282.00;;;;10443801;28;20247;-79
2023/07/28 13:06:05;;;;;;;4.10;1.55;;;;;28.70;100270.00;;;;10443429;28;20341;-78
2023/07/28 13:11:06;;;;;;;2.17;1.50;;;;;30.20;100280.00;;;;10430339;28;20200;-76
2023/07/28 13:16:11;;;;;;;1.65;1.27;;;;;30.50;100282.00;;;;10424430;28;20228;-77
2023/07/28 13:21:14;;;;;;;4.63;1.20;;;;;30.30;100277.00;;;;10440319;28;20232;-77
2023/07/28 13:26:15;;;;;;;1.58;1.48;;;;;30.60;100290.00;;;;10426069;28;20224;-77
2023/07/28 13:31:17;;;;;;;2.67;1.67;;;;;29.20;100290.00;;;;10424368;28;20217;-77
2023/07/28 13:36:19;;;;;;;1.60;1.50;;;;;28.50;100282.00;;;;10427875;28;20261;-77
2023/07/28 13:41:29;;;;;;;2.33;1.50;;;;;27.70;100295.00;;;;10444981;28;21833;-77
2023/07/28 13:46:49;;;;;;;4.32;1.33;;;;;27.10;100286.00;;;;10442559;28;20205;-78
2023/07/28 13:51:51;;;;;;;1.50;1.40;;;;;27.00;100284.00;;;;10410033;28;20308;-78
2023/07/28 13:56:55;;;;;;;3.90;1.38;;;;;28.30;100269.00;;;;10439965;28;20248;-77
2023/07/28 14:01:59;;;;;;;1.67;1.17;;;;;28.80;100276.00;;;;10424444;28;21170;-76
2023/07/28 14:07:00;;;;;;;2.28;1.30;;;;;29.00;100277.00;;;;10441327;28;20205;-77
2023/07/28 14:12:02;;;;;;;5.93;1.10;;;;;28.30;100269.00;;;;10440969;28;21975;-76
2023/07/28 14:17:04;;;;;;;1.25;1.00;;;;;27.80;100271.00;;;;10423322;28;20213;-76
2023/07/28 14:22:05;;;;;;;1.42;1.08;;;;;27.50;100270.00;;;;10421570;28;20216;-77
2023/07/28 14:27:06;;;;;;;3.47;1.50;;;;;26.60;100272.00;;;;10424314;28;20209;-77
2023/07/28 14:32:08;;;;;;;2.60;1.20;;;;;25.70;100283.00;;;;10423927;28;20235;-77
2023/07/28 14:37:09;;;;;;;1.85;1.10;;;;;25.90;100272.00;;;;10423504;28;20713;-76
2023/07/28 14:42:11;;;;;;;2.05;1.30;;;;;27.30;100274.00;;;;10423838;28;20324;-77
2023/07/28 14:47:12;;;;;;;1.02;1.00;;;;;28.10;100267.00;;;;10412535;28;20208;-76
2023/07/28 14:52:13;;;;;;;1.77;1.00;;;;;28.10;100269.00;;;;10440527;28;20204;-77
2023/07/28 14:57:15;;;;;;;1.00;1.00;;;;;27.00;100257.00;;;;10424958;28;20231;-77
2023/07/28 15:02:38;;;;;;;1.55;1.27;;;;;27.10;100257.00;;;;10439703;28;20204;-77
2023/07/28 15:07:39;;;;;;;2.40;1.20;;;;;27.00;100259.00;;;;10439348;28;20221;-77
2023/07/28 15:12:40;;;;;;;1.95;1.40;;;;;27.00;100253.00;;;;10421114;28;20217;-76
2023/07/28 15:17:45;;;;;;;2.15;1.30;;;;;27.00;100245.00;;;;10440219;28;20940;-76
2023/07/28 15:22:47;;;;;;;3.38;1.73;;;;;27.00;100260.00;;;;10419423;28;20197;-78
2023/07/28 15:27:48;;;;;;;2.35;1.25;;;;;26.20;100244.00;;;;10438508;28;21175;-76
2023/07/28 15:32:50;;;;;;;1.42;1.30;;;;;27.30;100242.00;;;;10420120;28;20224;-77
2023/07/28 15:37:51;;;;;;;3.78;1.58;;;;;26.60;100229.00;;;;10425299;28;20806;-77
2023/07/28 15:42:52;;;;;;;2.22;1.45;;;;;30.40;100219.00;;;;10406695;28;20203;-78
2023/07/28 15:47:54;;;;;;;1.83;1.20;;;;;28.60;100220.00;;;;10420837;28;20218;-77
2023/07/28 15:52:55;;;;;;;1.60;1.40;;;;;28.90;100226.00;;;;10439015;28;20269;-76
2023/07/28 15:57:56;;;;;;;1.67;1.15;;;;;26.70;100214.00;;;;10419833;28;20216;-76
2023/07/28 16:02:58;;;;;;;1.60;1.50;;;;;26.00;100219.00;;;;10433374;28;20910;-77
2023/07/28 16:08:00;;;;;;;1.58;1.30;;;;;25.90;100221.00;;;;10421063;28;20209;-76
2023/07/28 16:13:01;;;;;;;1.85;1.30;;;;;25.80;100219.00;;;;10440778;28;21017;-79
2023/07/28 16:18:03;;;;;;;3.08;2.05;;;;;25.40;100219.00;;;;10415347;28;20232;-78
2023/07/28 16:23:04;;;;;;;3.83;1.35;;;;;26.00;100221.00;;;;10365614;28;20222;-80
2023/07/28 16:28:06;;;;;;;2.50;1.50;;;;;26.20;100212.00;;;;10398947;28;20741;-79
2023/07/28 16:33:08;;;;;;;2.35;1.60;;;;;26.10;100217.00;;;;10394363;28;20260;-78
2023/07/28 16:38:09;;;;;;;1.60;1.30;;;;;25.60;100222.00;;;;10383241;28;21592;-80
2023/07/28 16:43:11;;;;;;;1.88;1.50;;;;;25.40;100206.00;;;;10398974;28;20888;-80
2023/07/28 16:48:12;;;;;;;4.53;1.40;;;;;25.60;100206.00;;;;10400469;28;20201;-80
2023/07/28 16:53:13;;;;;;;1.60;1.50;;;;;25.40;100203.00;;;;10417404;28;20304;-82
2023/07/28 16:58:16;;;;;;;3.67;1.60;;;;;25.00;100204.00;;;;10408809;28;20224;-77
2023/07/28 17:03:17;;;;;;;3.40;1.70;;;;;24.60;100207.00;;;;10404305;28;21375;-78
2023/07/28 17:08:19;;;;;;;3.15;1.42;;;;;24.70;100212.00;;;;10410611;28;20698;-78
2023/07/28 17:13:21;;;;;;;4.45;1.75;;;;;24.70;100201.00;;;;10397929;28;20261;-79
2023/07/28 17:18:22;;;;;;;2.92;2.08;;;;;24.90;100196.00;;;;10419480;28;20313;-77
2023/07/28 17:23:23;;;;;;;5.18;1.60;;;;;25.20;100188.00;;;;10420737;28;20552;-77
2023/07/28 17:28:24;;;;;;;4.47;1.90;;;;;25.20;100197.00;;;;10416658;28;20200;-77
2023/07/28 17:33:26;;;;;;;1.70;1.60;;;;;25.00;100198.00;;;;10413893;28;20596;-77
2023/07/28 17:38:28;;;;;;;1.63;1.52;;;;;24.80;100204.00;;;;10391536;28;20217;-79
2023/07/28 17:43:29;;;;;;;3.20;1.40;;;;;24.50;100209.00;;;;10387226;28;20220;-78
2023/07/28 17:48:31;;;;;;;2.03;1.83;;;;;24.20;100214.00;;;;10403753;28;20996;-79
2023/07/28 17:53:32;;;;;;;2.45;1.50;;;;;24.60;100213.00;;;;10401277;28;20279;-76
2023/07/28 17:58:34;;;;;;;5.07;2.00;;;;;24.50;100215.00;;;;10415407;28;21573;-78
2023/07/28 18:03:36;;;;;;;2.15;1.70;;;;;24.30;100219.00;;;;10413895;28;20279;-81
2023/07/28 18:08:37;;;;;;;4.13;1.50;;;;;24.20;100222.00;;;;10413221;28;20745;-76
2023/07/28 18:13:38;;;;;;;3.05;1.50;;;;;24.00;100226.00;;;;10398429;28;20234;-78
2023/07/28 18:18:40;;;;;;;1.83;1.73;;;;;23.90;100217.00;;;;10392823;28;20209;-76
2023/07/28 18:23:41;;;;;;;2.33;1.80;;;;;23.90;100216.00;;;;10414342;28;20213;-78
2023/07/28 18:28:43;;;;;;;2.75;1.85;;;;;23.80;100230.00;;;;10420474;28;20331;-79
2023/07/28 18:33:44;;;;;;;2.72;2.10;;;;;23.40;100236.00;;;;10421892;28;20259;-79
2023/07/28 18:38:45;;;;;;;1.80;1.70;;;;;23.00;100241.00;;;;10399950;28;20224;-77
2023/07/28 18:43:47;;;;;;;2.00;1.80;;;;;22.70;100240.00;;;;10415990;28;20216;-79
2023/07/28 18:48:49;;;;;;;1.63;1.35;;;;;22.50;100242.00;;;;10421224;28;20398;-79
2023/07/28 18:53:50;;;;;;;2.65;1.60;;;;;22.30;100239.00;;;;10385299;28;21371;-79
2023/07/28 18:58:52;;;;;;;3.13;1.70;;;;;22.10;100249.00;;;;10398752;28;20212;-78
2023/07/28 19:03:53;;;;;;;1.80;1.65;;;;;22.00;100254.00;;;;10393818;28;20298;-76
2023/07/28 19:08:55;;;;;;;1.52;1.25;;;;;21.90;100261.00;;;;10419768;28;20205;-77
2023/07/28 19:13:57;;;;;;;2.60;1.50;;;;;21.80;100267.00;;;;10418085;28;20225;-76
2023/07/28 19:18:58;;;;;;;1.98;1.45;;;;;21.50;100265.00;;;;10386351;28;20753;-80
2023/07/28 19:23:59;;;;;;;2.53;1.60;;;;;21.30;100264.00;;;;10416617;28;20746;-79
2023/07/28 19:29:02;;;;;;;3.75;2.10;;;;;21.10;100273.00;;;;10381167;28;20204;-80
2023/07/28 19:34:04;;;;;;;2.72;1.85;;;;;20.90;100278.00;;;;10395488;28;20305;-77
2023/07/28 19:39:05;;;;;;;2.33;1.60;;;;;20.70;100277.00;;;;10411373;28;20244;-75
2023/07/28 19:44:07;;;;;;;3.55;1.83;;;;;20.60;100274.00;;;;10402741;28;20216;-80
2023/07/28 19:49:11;;;;;;;2.90;2.10;;;;;20.50;100262.00;;;;10384810;28;20233;-77
2023/07/28 19:54:13;;;;;;;2.10;1.90;;;;;20.30;100275.00;;;;10421016;28;20236;-77
2023/07/28 19:59:15;;;;;;;1.95;1.75;;;;;20.30;100285.00;;;;10380680;28;20209;-79
2023/07/28 20:04:16;;;;;;;2.70;1.98;;;;;20.40;100300.00;;;;10395445;28;20216;-78
2023/07/28 20:09:18;;;;;;;3.15;1.92;;;;;20.40;100288.00;;;;10391189;28;20208;-78
2023/07/28 20:14:20;;;;;;;4.22;2.03;;;;;20.40;100275.00;;;;10409630;28;20348;-77
2023/07/28 20:19:22;;;;;;;4.00;1.80;;;;;20.30;100276.00;;;;10393669;28;20905;-78
2023/07/28 20:24:24;;;;;;;3.63;2.25;;;;;20.20;100272.00;;;;10413477;28;20273;-80
2023/07/28 20:29:25;;;;;;;3.50;1.75;;;;;20.10;100262.00;;;;10412069;28;20205;-76
2023/07/28 20:34:26;;;;;;;4.00;2.55;;;;;20.10;100260.00;;;;10389267;28;20953;-77
2023/07/28 20:39:28;;;;;;;2.10;1.63;;;;;20.00;100260.00;;;;10381970;28;20309;-78
2023/07/28 20:44:29;;;;;;;2.20;1.83;;;;;20.00;100268.00;;;;10419484;28;20545;-78
2023/07/28 20:49:31;;;;;;;2.00;1.83;;;;;19.80;100279.00;;;;10401857;28;20213;-79
2023/07/28 20:54:32;;;;;;;3.22;1.98;;;;;19.70;100278.00;;;;10403202;28;20247;-79
2023/07/28 20:59:33;;;;;;;2.33;2.13;;;;;19.70;100273.00;;;;10404470;28;20213;-79
2023/07/28 21:04:36;;;;;;;2.92;2.40;;;;;19.70;100284.00;;;;10424017;28;20292;-79
2023/07/28 21:09:38;;;;;;;4.13;2.08;;;;;19.60;100287.00;;;;10403544;28;20293;-78
2023/07/28 21:14:39;;;;;;;2.60;2.40;;;;;19.50;100288.00;;;;10399804;28;20228;-76
2023/07/28 21:19:43;;;;;;;3.08;2.38;;;;;19.50;100280.00;;;;10416090;28;20468;-77
2023/07/28 21:24:44;;;;;;;3.38;2.30;;;;;19.40;100271.00;;;;10380712;28;20209;-78
2023/07/28 21:29:47;;;;;;;4.05;3.55;;;;;19.30;100259.00;;;;10382364;28;20201;-78
2023/07/28 21:34:48;;;;;;;13.23;2.83;;;;;19.20;100258.00;;;;10414931;28;20222;-78
2023/07/28 21:39:49;;;;;;;2.85;2.55;;;;;19.00;100262.00;;;;10419968;28;20249;-76
2023/07/28 21:44:51;;;;;;;4.20;2.10;;;;;18.90;100254.00;;;;10413684;28;20210;-77
2023/07/28 21:49:53;;;;;;;4.40;2.10;;;;;18.80;100268.00;;;;10415162;28;20205;-76
2023/07/28 21:54:55;;;;;;;5.45;2.30;;;;;18.70;100265.00;;;;10412507;28;20221;-77
2023/07/28 21:59:56;;;;;;;3.53;2.10;;;;;18.60;100272.00;;;;10403102;28;20304;-77
2023/07/28 22:04:57;;;;;;;4.10;2.03;;;;;18.50;100275.00;;;;10404892;28;20682;-75
2023/07/28 22:10:00;;;;;;;2.38;2.05;;;;;18.50;100269.00;;;;10429224;28;20205;-80
2023/07/28 22:15:02;;;;;;;4.53;2.50;;;;;18.50;100276.00;;;;10398226;28;20225;-76
2023/07/28 22:20:06;;;;;;;3.50;2.50;;;;;18.50;100266.00;;;;10397381;28;20740;-75
2023/07/28 22:25:08;;;;;;;6.97;3.15;;;;;18.60;100250.00;;;;10396855;28;20927;-78
2023/07/28 22:30:09;;;;;;;3.83;2.40;;;;;18.50;100248.00;;;;10412520;28;20205;-76
2023/07/28 22:35:11;;;;;;;3.88;2.85;;;;;18.40;100239.00;;;;10415870;28;20699;-77
2023/07/28 22:40:12;;;;;;;3.22;2.20;;;;;18.40;100247.00;;;;10373592;28;20888;-77
2023/07/28 22:45:14;;;;;;;4.13;2.35;;;;;18.40;100246.00;;;;10388900;28;20437;-79
2023/07/28 22:50:15;;;;;;;1.98;1.70;;;;;18.60;100252.00;;;;10408954;28;20242;-76
2023/07/28 22:55:17;;;;;;;1.98;1.77;;;;;18.70;100261.00;;;;10407046;28;20237;-77
2023/07/28 23:00:22;;;;;;;5.35;1.80;;;;;18.70;100256.00;;;;10387928;28;20216;-77
2023/07/28 23:05:24;;;;;;;3.20;1.55;;;;;18.70;100264.00;;;;10409883;28;20836;-78
2023/07/28 23:10:26;;;;;;;2.42;1.88;;;;;18.70;100268.00;;;;10400412;28;20205;-76
2023/07/28 23:15:28;;;;;;;3.13;1.70;;;;;18.60;100273.00;;;;10415732;28;20220;-79
2023/07/28 23:20:29;;;;;;;2.58;1.75;;;;;18.70;100254.00;;;;10419682;28;20211;-77
2023/07/28 23:25:31;;;;;;;5.05;1.73;;;;;18.80;100269.00;;;;10410106;28;20320;-76
2023/07/28 23:30:33;;;;;;;2.22;1.42;;;;;18.70;100256.00;;;;10394020;28;20259;-77
2023/07/28 23:35:34;;;;;;;3.33;1.80;;;;;18.70;100259.00;;;;10377003;28;20984;-78
2023/07/28 23:40:36;;;;;;;3.03;1.83;;;;;18.70;100259.00;;;;10392071;28;20205;-80
2023/07/28 23:45:37;;;;;;;3.92;1.77;;;;;18.60;100256.00;;;;10388397;28;21229;-79
2023/07/28 23:50:39;;;;;;;2.42;2.03;;;;;18.40;100255.00;;;;10394375;28;20220;-76
2023/07/28 23:55:40;;;;;;;3.78;1.60;;;;;18.30;100255.00;;;;10385804;28;20229;-76
